Eckelson, North Dakota
Current Conditions -  °F | °C
As of 7:35 PM on Thursday 27 Nov 2014 (Local Time) from KBAC Reporting Station
Light Snow Light Snow  
Wind Chill: -13°   Ceiling: 300
Heat Index:   Visibility: 2mi
Dew Point:   Wind: 15mph
Humidity: 92%   Direction: 130°SE
Pressure: 30.11"   Gusts: NA
Location:  46.94°N, 98.33°W
Report Text: KBAC 280135Z AUTO 13013KT 2SM -SN OVC003 M15/M16 A3011 RMK AO2 P0002
Loading
Personal Weather Stations






























Interactive Weather Map New forecast layout! Learn more

10-Day Weather Forecast

Advertisements
Track Severe Weather on mobile